createdAt,value
2022-08-01T00:00:21.483Z,74.70
2022-08-01T00:02:48.546Z,75.10
2022-08-01T00:05:16.167Z,75.60
2022-08-01T00:07:43.548Z,75.90
2022-08-01T00:10:18.514Z,76.30
2022-08-01T00:12:46.502Z,77.00
2022-08-01T00:15:18.167Z,77.30
2022-08-01T00:17:45.708Z,77.50
2022-08-01T00:20:14.599Z,77.70
2022-08-01T00:22:41.677Z,77.60
2022-08-01T00:25:09.155Z,78.70
2022-08-01T00:27:37.655Z,77.80
2022-08-01T00:30:11.543Z,78.00
2022-08-01T00:32:43.163Z,78.40
2022-08-01T00:35:10.853Z,78.70
2022-08-01T00:37:37.900Z,78.60
2022-08-01T00:40:05.579Z,79.00
2022-08-01T00:42:32.552Z,79.50
2022-08-01T00:44:59.677Z,79.50
2022-08-01T00:47:26.637Z,79.90
2022-08-01T00:49:53.970Z,80.40
2022-08-01T00:52:21.311Z,80.60
2022-08-01T00:54:49.052Z,80.80
2022-08-01T00:57:16.199Z,81.10
2022-08-01T00:59:54.964Z,81.20
2022-08-01T01:02:22.011Z,81.10
2022-08-01T01:04:48.947Z,81.30
2022-08-01T01:07:28.629Z,81.20
2022-08-01T01:10:12.800Z,81.30
2022-08-01T01:12:49.941Z,81.40
2022-08-01T01:15:19.669Z,81.30
2022-08-01T01:18:01.335Z,81.50
2022-08-01T01:20:45.242Z,81.70
2022-08-01T01:23:15.157Z,81.90
2022-08-01T01:26:03.065Z,81.90
2022-08-01T01:29:12.389Z,81.90
2022-08-01T01:31:48.944Z,82.00
2022-08-01T01:34:20.135Z,82.30
2022-08-01T01:36:50.861Z,82.40
2022-08-01T01:39:18.759Z,82.50
2022-08-01T01:41:48.057Z,82.60
2022-08-01T01:44:17.233Z,82.90
2022-08-01T01:46:44.861Z,82.80
2022-08-01T01:49:13.554Z,83.10
2022-08-01T01:51:43.520Z,83.30
2022-08-01T01:54:37.367Z,83.60
2022-08-01T01:57:06.999Z,83.50
2022-08-01T01:59:37.224Z,83.80
2022-08-01T02:02:06.898Z,84.10
2022-08-01T02:04:39.029Z,84.20
2022-08-01T02:07:10.018Z,84.30
2022-08-01T02:09:39.024Z,84.40
2022-08-01T02:12:13.964Z,84.90
2022-08-01T02:14:43.530Z,85.50
2022-08-01T02:17:18.469Z,86.10
2022-08-01T02:19:46.171Z,86.10
2022-08-01T02:22:33.771Z,86.30
2022-08-01T02:25:12.373Z,86.20
2022-08-01T02:27:43.566Z,86.80
2022-08-01T02:30:14.344Z,87.00
2022-08-01T02:32:57.728Z,87.30
2022-08-01T02:36:30.816Z,87.30
2022-08-01T02:38:27.888Z,87.50
2022-08-01T02:40:58.982Z,88.00
2022-08-01T02:43:29.645Z,88.10
2022-08-01T02:46:02.467Z,88.40
2022-08-01T02:48:32.609Z,88.60
2022-08-01T02:51:05.084Z,88.80
2022-08-01T02:53:38.897Z,89.30
2022-08-01T02:56:13.097Z,89.80
2022-08-01T02:58:41.666Z,90.20
2022-08-01T03:01:10.461Z,90.40
2022-08-01T03:03:39.502Z,90.60
2022-08-01T03:06:08.160Z,90.80
2022-08-01T03:08:37.699Z,91.00
2022-08-01T03:11:06.320Z,91.10
2022-08-01T03:13:34.979Z,91.30
2022-08-01T03:16:03.407Z,91.40
2022-08-01T03:18:31.254Z,91.50
2022-08-01T03:21:00.153Z,91.70
2022-08-01T03:23:38.245Z,91.90
2022-08-01T03:26:06.898Z,92.10
2022-08-01T03:28:34.509Z,92.30
2022-08-01T03:31:03.093Z,92.40
2022-08-01T03:33:30.523Z,92.50
2022-08-01T03:36:01.319Z,92.60
2022-08-01T03:38:31.604Z,92.70
2022-08-01T03:41:03.604Z,92.70
2022-08-01T03:43:41.304Z,92.70
2022-08-01T03:46:12.476Z,92.70
2022-08-01T03:48:44.964Z,92.80
2022-08-01T03:51:13.565Z,92.80
2022-08-01T03:53:43.594Z,93.00
2022-08-01T03:56:13.841Z,93.10
2022-08-01T03:58:44.820Z,93.30
2022-08-01T04:01:18.448Z,93.50
2022-08-01T04:03:46.142Z,93.70
2022-08-01T04:06:15.139Z,93.70
2022-08-01T04:08:43.519Z,93.80
2022-08-01T04:11:11.321Z,94.00
2022-08-01T04:13:39.564Z,94.30
2022-08-01T04:16:06.593Z,94.50
2022-08-01T04:18:33.796Z,94.70
2022-08-01T04:21:00.849Z,94.70
2022-08-01T04:23:32.595Z,94.90
2022-08-01T04:26:03.196Z,95.00
2022-08-01T04:28:33.094Z,95.20
2022-08-01T04:31:02.191Z,95.40
2022-08-01T04:33:31.917Z,95.30
2022-08-01T04:36:04.831Z,95.50
2022-08-01T04:38:35.504Z,95.40
2022-08-01T04:41:09.100Z,95.50
2022-08-01T04:43:37.910Z,95.50
2022-08-01T04:46:05.205Z,95.70
2022-08-01T04:48:35.647Z,95.50
2022-08-01T04:51:02.774Z,96.30
2022-08-01T04:53:29.794Z,95.90
2022-08-01T04:55:56.908Z,95.90
2022-08-01T04:58:24.059Z,96.00
2022-08-01T05:00:51.210Z,95.70
2022-08-01T05:03:18.474Z,95.40
2022-08-01T05:05:45.599Z,95.10
2022-08-01T05:08:12.694Z,95.00
2022-08-01T05:10:39.724Z,94.80
2022-08-01T05:13:07.665Z,94.80
2022-08-01T05:15:37.840Z,94.80
2022-08-01T05:18:05.445Z,95.40
2022-08-01T05:20:34.904Z,95.30
2022-08-01T05:23:01.995Z,95.70
2022-08-01T05:25:55.950Z,95.50
2022-08-01T05:28:19.020Z,95.10
2022-08-01T05:30:46.647Z,95.30
2022-08-01T05:33:13.817Z,93.90
2022-08-01T05:35:48.550Z,93.30
2022-08-01T05:38:16.829Z,88.80
2022-08-01T05:40:43.922Z,77.40
2022-08-01T05:43:10.875Z,71.90
2022-08-01T05:45:38.064Z,68.50
2022-08-01T05:48:05.258Z,67.40
2022-08-01T05:50:33.667Z,62.80
2022-08-01T05:53:00.687Z,59.20
2022-08-01T05:55:27.678Z,55.60
2022-08-01T05:57:54.701Z,52.60
2022-08-01T06:00:21.830Z,50.30
2022-08-01T06:02:48.831Z,48.60
2022-08-01T06:05:16.728Z,47.30
2022-08-01T06:07:43.846Z,46.20
2022-08-01T06:10:11.114Z,45.80
2022-08-01T06:12:38.533Z,45.40
2022-08-01T06:15:08.657Z,44.60
2022-08-01T06:17:35.848Z,44.50
2022-08-01T06:20:03.543Z,44.10
2022-08-01T06:22:30.549Z,43.70
2022-08-01T06:24:58.623Z,43.70
2022-08-01T06:27:28.752Z,43.20
2022-08-01T06:29:55.970Z,43.70
2022-08-01T06:32:27.905Z,44.70
2022-08-01T06:34:56.585Z,46.60
2022-08-01T06:37:24.173Z,49.30
2022-08-01T06:39:51.528Z,51.00
2022-08-01T06:42:18.919Z,51.40
2022-08-01T06:44:46.225Z,48.70
2022-08-01T06:47:13.528Z,46.50
2022-08-01T06:49:40.515Z,47.40
2022-08-01T06:52:07.892Z,49.90
2022-08-01T06:54:35.154Z,52.80
2022-08-01T06:57:05.581Z,54.90
2022-08-01T06:59:32.679Z,53.60
2022-08-01T07:01:59.684Z,52.40
2022-08-01T07:04:26.652Z,52.00
2022-08-01T07:06:53.640Z,53.10
2022-08-01T07:09:20.724Z,54.40
2022-08-01T07:11:47.714Z,56.00
2022-08-01T07:14:14.685Z,58.30
2022-08-01T07:16:41.736Z,60.10
2022-08-01T07:19:09.108Z,59.30
2022-08-01T07:21:40.090Z,60.10
2022-08-01T07:24:16.638Z,61.50
2022-08-01T07:26:53.844Z,59.70
2022-08-01T07:29:24.139Z,58.70
2022-08-01T07:31:52.169Z,59.40
2022-08-01T07:34:19.126Z,57.80
2022-08-01T07:36:47.009Z,55.30
2022-08-01T07:39:13.985Z,52.40
2022-08-01T07:41:52.898Z,51.20
2022-08-01T07:44:28.088Z,50.10
2022-08-01T07:46:56.253Z,49.80
2022-08-01T07:49:23.347Z,52.00
2022-08-01T07:52:03.972Z,54.30
2022-08-01T07:54:38.053Z,55.30
2022-08-01T07:57:05.401Z,54.40
2022-08-01T07:59:32.716Z,53.20
2022-08-01T08:02:01.330Z,55.00
2022-08-01T08:04:29.156Z,57.40
2022-08-01T08:06:56.203Z,58.70
2022-08-01T08:09:24.332Z,59.30
2022-08-01T08:11:51.525Z,60.90
2022-08-01T08:14:19.483Z,61.30
2022-08-01T08:16:46.703Z,62.80
2022-08-01T08:19:13.938Z,64.40
2022-08-01T08:21:41.463Z,65.40
2022-08-01T08:24:26.421Z,65.50
2022-08-01T08:27:02.052Z,66.60
2022-08-01T08:29:30.995Z,66.90
2022-08-01T08:31:59.015Z,67.00
2022-08-01T08:34:28.046Z,67.70
2022-08-01T08:36:56.573Z,68.40
2022-08-01T08:39:24.437Z,68.60
2022-08-01T08:41:51.853Z,68.80
2022-08-01T08:44:21.303Z,69.10
2022-08-01T08:46:53.582Z,68.70
2022-08-01T08:49:26.760Z,69.10
2022-08-01T08:51:54.761Z,69.70
2022-08-01T08:54:29.173Z,70.00
2022-08-01T08:56:59.718Z,69.10
2022-08-01T08:59:27.501Z,67.20
2022-08-01T09:01:54.836Z,65.20
2022-08-01T09:04:26.117Z,64.50
2022-08-01T09:06:55.887Z,64.30
2022-08-01T09:09:24.127Z,64.60
2022-08-01T09:12:06.637Z,64.80
2022-08-01T09:14:36.295Z,64.80
2022-08-01T09:17:13.941Z,65.90
2022-08-01T09:19:46.701Z,67.90
2022-08-01T09:22:19.253Z,63.70
2022-08-01T09:25:11.919Z,63.10
2022-08-01T09:27:44.336Z,63.90
2022-08-01T09:30:19.716Z,64.80
2022-08-01T09:33:17.981Z,63.10
2022-08-01T09:35:57.281Z,62.30
2022-08-01T09:38:28.231Z,62.70
2022-08-01T09:40:58.403Z,63.20
2022-08-01T09:43:29.859Z,64.30
2022-08-01T09:45:58.926Z,64.10
2022-08-01T09:48:28.563Z,63.10
2022-08-01T09:51:00.990Z,63.40
2022-08-01T09:53:51.822Z,63.90
2022-08-01T09:56:21.838Z,63.30
2022-08-01T09:59:02.415Z,62.00
2022-08-01T10:01:44.647Z,61.50
2022-08-01T10:04:23.625Z,60.60
2022-08-01T10:06:55.519Z,59.50
2022-08-01T10:09:39.632Z,59.90
2022-08-01T10:12:09.184Z,60.70
2022-08-01T10:14:46.336Z,61.10
2022-08-01T10:17:20.871Z,60.10
2022-08-01T10:19:51.606Z,60.60
2022-08-01T10:22:23.795Z,60.40
2022-08-01T10:24:55.947Z,59.80
2022-08-01T10:27:39.629Z,59.00
2022-08-01T10:30:19.770Z,59.70
2022-08-01T10:32:53.225Z,59.30
2022-08-01T10:35:45.757Z,59.60
2022-08-01T10:38:10.754Z,58.30
2022-08-01T10:40:42.594Z,57.50
2022-08-01T10:43:21.571Z,57.20
2022-08-01T10:45:50.449Z,57.10
2022-08-01T10:48:53.147Z,57.70
2022-08-01T10:51:22.519Z,57.10
2022-08-01T10:54:11.707Z,58.00
2022-08-01T10:56:48.632Z,58.30
2022-08-01T10:59:49.595Z,58.50
2022-08-01T11:02:32.701Z,58.40
2022-08-01T11:05:05.362Z,57.40
2022-08-01T11:07:47.094Z,56.10
2022-08-01T11:10:32.756Z,54.60
2022-08-01T11:13:02.308Z,55.00
2022-08-01T11:15:31.935Z,54.20
2022-08-01T11:18:27.313Z,53.70
2022-08-01T11:21:58.558Z,52.90
2022-08-01T11:23:51.258Z,54.70
2022-08-01T11:26:29.664Z,55.70
2022-08-01T11:29:22.603Z,54.40
2022-08-01T11:31:51.406Z,54.00
2022-08-01T11:34:18.997Z,54.00
2022-08-01T11:37:10.004Z,53.80
2022-08-01T11:39:38.654Z,52.50
2022-08-01T11:42:24.110Z,53.10
2022-08-01T11:44:55.298Z,53.40
2022-08-01T11:47:45.763Z,53.90
2022-08-01T11:50:31.799Z,53.60
2022-08-01T11:53:07.662Z,53.30
2022-08-01T11:55:36.023Z,52.00
2022-08-01T11:58:06.937Z,52.70
2022-08-01T12:00:35.919Z,52.70
2022-08-01T12:03:07.556Z,52.10
2022-08-01T12:05:37.903Z,51.60
2022-08-01T12:08:10.683Z,50.50
2022-08-01T12:10:51.381Z,49.80
2022-08-01T12:13:30.338Z,50.10
2022-08-01T12:15:57.438Z,50.30
2022-08-01T12:18:24.503Z,50.80
2022-08-01T12:20:56.898Z,50.80
2022-08-01T12:23:24.559Z,51.40
2022-08-01T12:25:54.870Z,52.90
2022-08-01T12:28:22.566Z,54.20
2022-08-01T12:30:51.783Z,55.10
2022-08-01T12:33:20.849Z,54.60
2022-08-01T12:35:50.188Z,52.70
2022-08-01T12:38:23.177Z,52.20
2022-08-01T12:40:53.043Z,53.20
2022-08-01T12:43:28.711Z,54.00
2022-08-01T12:45:59.050Z,53.50
2022-08-01T12:48:27.047Z,53.90
2022-08-01T12:50:57.014Z,54.30
2022-08-01T12:53:27.020Z,54.10
2022-08-01T12:56:07.211Z,53.70
2022-08-01T12:58:35.150Z,53.40
2022-08-01T13:01:13.486Z,53.70
2022-08-01T13:03:58.306Z,53.90
2022-08-01T13:06:43.341Z,52.90
2022-08-01T13:09:12.608Z,52.50
2022-08-01T13:12:03.857Z,52.70
2022-08-01T13:14:32.006Z,51.90
2022-08-01T13:16:59.006Z,52.30
2022-08-01T13:19:59.058Z,53.00
2022-08-01T13:22:38.958Z,53.30
2022-08-01T13:25:18.652Z,52.80
2022-08-01T13:28:12.902Z,52.50
2022-08-01T13:31:04.670Z,52.80
2022-08-01T13:33:59.941Z,51.80
2022-08-01T13:36:32.102Z,51.90
2022-08-01T13:39:18.887Z,53.60
2022-08-01T13:41:46.958Z,51.50
2022-08-01T13:44:14.804Z,49.20
2022-08-01T13:46:49.237Z,50.00
2022-08-01T13:49:17.717Z,50.50
2022-08-01T13:51:52.270Z,50.10
2022-08-01T13:54:19.806Z,49.70
2022-08-01T13:56:47.167Z,49.80
2022-08-01T13:59:14.459Z,48.70
2022-08-01T14:01:41.510Z,49.70
2022-08-01T14:04:16.368Z,50.00
2022-08-01T14:06:43.512Z,49.30
2022-08-01T14:09:17.910Z,49.90
2022-08-01T14:11:52.043Z,48.30
2022-08-01T14:14:19.155Z,48.50
2022-08-01T14:16:46.576Z,48.80
2022-08-01T14:19:38.918Z,49.00
2022-08-01T14:22:07.151Z,49.50
2022-08-01T14:24:34.455Z,49.60
2022-08-01T14:27:01.756Z,50.30
2022-08-01T14:30:02.955Z,48.80
2022-08-01T14:32:28.801Z,49.20
2022-08-01T14:34:57.827Z,48.20
2022-08-01T14:37:28.859Z,47.90
2022-08-01T14:40:10.763Z,47.20
2022-08-01T14:42:39.476Z,48.00
2022-08-01T14:45:09.944Z,48.90
2022-08-01T14:47:49.357Z,50.50
2022-08-01T14:50:44.722Z,50.70
2022-08-01T14:53:12.011Z,50.60
2022-08-01T14:55:50.778Z,50.10
2022-08-01T14:58:22.950Z,50.30
2022-08-01T15:01:13.243Z,51.40
2022-08-01T15:03:40.416Z,51.60
2022-08-01T15:06:17.960Z,52.20
2022-08-01T15:08:45.365Z,52.60
2022-08-01T15:11:48.978Z,53.20
2022-08-01T15:17:25.150Z,52.80
2022-08-01T15:19:57.060Z,51.80
2022-08-01T15:22:28.165Z,51.40
2022-08-01T15:24:57.569Z,52.00
2022-08-01T15:27:26.047Z,52.40
2022-08-01T15:29:54.149Z,52.60
2022-08-01T15:32:21.805Z,52.90
2022-08-01T15:34:48.852Z,53.70
2022-08-01T15:37:16.259Z,54.90
2022-08-01T15:39:43.276Z,55.50
2022-08-01T15:42:20.157Z,56.00
2022-08-01T15:44:52.456Z,55.90
2022-08-01T15:47:19.467Z,56.10
2022-08-01T15:50:03.595Z,56.00
2022-08-01T15:52:31.787Z,55.50
2022-08-01T15:54:59.330Z,55.20
2022-08-01T15:57:32.314Z,55.70
2022-08-01T15:59:59.271Z,56.00
2022-08-01T16:02:27.351Z,55.90
2022-08-01T16:04:54.651Z,56.10
2022-08-01T16:07:24.922Z,56.60
2022-08-01T16:09:51.966Z,57.00
2022-08-01T16:12:19.039Z,57.10
2022-08-01T16:14:46.242Z,57.30
2022-08-01T16:17:13.291Z,57.50
2022-08-01T16:19:49.607Z,57.40
2022-08-01T16:22:23.175Z,57.30
2022-08-01T16:24:50.162Z,57.30
2022-08-01T16:27:23.270Z,57.10
2022-08-01T16:29:52.663Z,57.40
2022-08-01T16:32:31.312Z,57.10
2022-08-01T16:35:09.569Z,56.80
2022-08-01T16:37:37.258Z,56.70
2022-08-01T16:40:04.906Z,57.10
2022-08-01T16:42:31.877Z,57.00
2022-08-01T16:45:04.013Z,57.40
2022-08-01T16:47:40.016Z,57.80
2022-08-01T16:50:09.650Z,58.00
2022-08-01T16:52:42.100Z,58.50
2022-08-01T16:55:10.462Z,58.40
2022-08-01T16:57:38.535Z,58.80
2022-08-01T17:00:11.684Z,59.30
2022-08-01T17:02:48.830Z,59.30
2022-08-01T17:05:16.021Z,59.80
2022-08-01T17:07:43.190Z,60.30
2022-08-01T17:10:11.935Z,60.00
2022-08-01T17:12:40.205Z,59.90
2022-08-01T17:15:08.360Z,60.20
2022-08-01T17:17:41.087Z,60.10
2022-08-01T17:20:08.637Z,59.90
2022-08-01T17:22:35.691Z,59.90
2022-08-01T17:25:03.210Z,60.40
2022-08-01T17:27:30.219Z,60.50
2022-08-01T17:29:57.244Z,61.10
2022-08-01T17:32:24.559Z,61.10
2022-08-01T17:34:51.756Z,61.30
2022-08-01T17:37:19.030Z,61.70
2022-08-01T17:39:46.015Z,61.60
2022-08-01T17:42:13.196Z,62.20
2022-08-01T17:44:41.545Z,62.90
2022-08-01T17:47:09.160Z,63.00
2022-08-01T17:49:54.257Z,62.80
2022-08-01T17:52:22.367Z,63.50
2022-08-01T17:54:49.828Z,63.80
2022-08-01T17:57:16.819Z,63.90
2022-08-01T17:59:45.141Z,63.80
2022-08-01T18:02:12.256Z,64.10
2022-08-01T18:04:44.131Z,64.60
2022-08-01T18:07:12.246Z,65.00
2022-08-01T18:09:45.546Z,65.40
2022-08-01T18:12:16.126Z,65.70
2022-08-01T18:14:46.206Z,65.70
2022-08-01T18:17:13.600Z,66.30
2022-08-01T18:19:41.475Z,66.80
2022-08-01T18:22:31.254Z,67.10
2022-08-01T18:25:07.555Z,67.60
2022-08-01T18:28:29.389Z,68.00
2022-08-01T18:30:22.971Z,68.30
2022-08-01T18:32:50.161Z,68.60
2022-08-01T18:35:17.190Z,68.70
2022-08-01T18:37:49.295Z,68.90
2022-08-01T18:40:23.114Z,70.50
2022-08-01T18:42:50.564Z,74.80
2022-08-01T18:45:18.036Z,75.60
2022-08-01T18:47:46.356Z,79.80
2022-08-01T18:50:15.296Z,79.10
2022-08-01T18:52:44.983Z,82.30
2022-08-01T18:55:12.000Z,81.20
2022-08-01T18:57:42.635Z,81.10
2022-08-01T19:00:10.435Z,80.50
2022-08-01T19:02:38.001Z,81.60
2022-08-01T19:05:05.262Z,83.90
2022-08-01T19:08:04.338Z,85.00
2022-08-01T19:10:19.399Z,85.10
2022-08-01T19:12:46.405Z,85.30
2022-08-01T19:15:14.702Z,86.70
2022-08-01T19:17:42.418Z,86.50
2022-08-01T19:20:09.980Z,86.10
2022-08-01T19:22:37.067Z,86.10
2022-08-01T19:25:05.189Z,86.00
2022-08-01T19:27:35.243Z,86.80
2022-08-01T19:30:03.807Z,87.40
2022-08-01T19:32:34.458Z,88.40
2022-08-01T19:35:11.264Z,88.80
2022-08-01T19:37:54.062Z,88.50
2022-08-01T19:40:27.574Z,88.90
2022-08-01T19:43:16.995Z,88.10
2022-08-01T19:45:47.298Z,88.30
2022-08-01T19:48:15.343Z,89.80
2022-08-01T19:50:46.384Z,90.80
2022-08-01T19:53:15.565Z,91.70
2022-08-01T19:55:44.403Z,92.10
2022-08-01T19:58:26.785Z,92.30
2022-08-01T20:00:54.615Z,92.50
2022-08-01T20:03:23.431Z,93.30
2022-08-01T20:05:51.750Z,93.40
2022-08-01T20:08:20.861Z,93.50
2022-08-01T20:10:48.672Z,93.30
2022-08-01T20:13:17.293Z,94.20
2022-08-01T20:15:45.190Z,94.60
2022-08-01T20:18:12.276Z,94.50
2022-08-01T20:20:39.521Z,95.00
2022-08-01T20:23:17.917Z,95.00
2022-08-01T20:25:48.415Z,94.70
2022-08-01T20:28:21.513Z,94.80
2022-08-01T20:30:56.446Z,94.90
2022-08-01T20:33:24.047Z,95.10
2022-08-01T20:35:55.757Z,95.70
2022-08-01T20:38:27.658Z,96.00
2022-08-01T20:41:00.076Z,95.90
2022-08-01T20:43:28.036Z,96.00
2022-08-01T20:45:56.190Z,96.30
2022-08-01T20:48:26.798Z,96.70
2022-08-01T20:51:12.968Z,97.20
2022-08-01T20:53:45.786Z,97.70
2022-08-01T20:56:37.304Z,98.30
2022-08-01T20:59:54.589Z,98.80
2022-08-01T21:02:41.506Z,99.00
2022-08-01T21:05:13.106Z,99.80
2022-08-01T21:07:47.054Z,99.60
2022-08-01T21:10:17.688Z,99.80
2022-08-01T21:12:58.496Z,99.90
2022-08-01T21:15:34.292Z,99.90
2022-08-01T21:18:07.163Z,99.90
2022-08-01T21:20:40.907Z,99.90
2022-08-01T21:23:29.499Z,99.90
2022-08-01T21:25:59.002Z,99.90
2022-08-01T21:28:28.666Z,99.90
2022-08-01T21:30:59.298Z,99.90
2022-08-01T21:33:29.067Z,99.90
2022-08-01T21:36:01.360Z,99.90
2022-08-01T21:38:34.169Z,99.90
2022-08-01T21:41:04.496Z,99.90
2022-08-01T21:43:33.404Z,99.90
2022-08-01T21:46:01.265Z,99.90
2022-08-01T21:48:30.784Z,99.90
2022-08-01T21:51:01.354Z,99.90
2022-08-01T21:53:55.242Z,99.90
2022-08-01T21:56:25.253Z,99.90
2022-08-01T21:59:21.791Z,99.90
2022-08-01T22:02:00.366Z,99.90
2022-08-01T22:05:02.944Z,99.90
2022-08-01T22:07:37.119Z,99.90
2022-08-01T22:10:06.227Z,99.90
2022-08-01T22:12:35.857Z,99.90
2022-08-01T22:15:06.310Z,99.90
2022-08-01T22:17:34.088Z,99.90
2022-08-01T22:20:01.913Z,99.90
2022-08-01T22:22:45.002Z,99.90
2022-08-01T22:25:17.924Z,99.90
2022-08-01T22:28:02.922Z,99.90
2022-08-01T22:30:34.992Z,99.90
2022-08-01T22:33:07.443Z,99.90
2022-08-01T22:35:45.714Z,99.90
2022-08-01T22:38:12.822Z,99.90
2022-08-01T22:40:46.171Z,99.90
2022-08-01T22:43:24.253Z,99.90
2022-08-01T22:46:21.499Z,99.90
2022-08-01T22:49:14.803Z,99.90
2022-08-01T22:51:54.910Z,99.90
2022-08-01T22:54:30.163Z,99.90
2022-08-01T22:57:00.699Z,99.90
2022-08-01T22:59:42.441Z,99.90
2022-08-01T23:02:14.245Z,99.90
2022-08-01T23:04:47.464Z,99.90
2022-08-01T23:07:20.283Z,99.90
2022-08-01T23:09:54.161Z,99.90
2022-08-01T23:12:27.126Z,99.90
2022-08-01T23:14:56.455Z,99.90
2022-08-01T23:17:27.756Z,99.90
2022-08-01T23:19:58.934Z,99.90
2022-08-01T23:22:30.415Z,99.90
2022-08-01T23:25:03.888Z,99.90
2022-08-01T23:28:03.576Z,99.90
2022-08-01T23:30:30.108Z,99.90
2022-08-01T23:32:57.952Z,99.90
2022-08-01T23:35:26.088Z,99.90
2022-08-01T23:37:53.966Z,99.90
2022-08-01T23:40:25.071Z,99.90
2022-08-01T23:42:54.792Z,99.90
2022-08-01T23:45:22.784Z,99.90
2022-08-01T23:47:49.905Z,99.90
2022-08-01T23:50:16.995Z,99.90
2022-08-01T23:52:48.311Z,99.90
2022-08-01T23:55:17.507Z,99.90
2022-08-01T23:57:44.904Z,99.90
